map of TLL home
TLL - Airport
Location
City:  Tallinn, Estonia
Name:Ülemiste
ICAO:EETN
IATA:TLL

Details
Type:Airport (Aerodrome, Airfield)
Use:Public/Civil, International (customs port of entry)
Latitude:59°24'48"N (59.413317)
Longitude:24°49'58"E (24.832844)
Datum:WGS 1984
Elevation:131 ft (40 m)
Variation:8.78°E (WMM2015 magnetic declination)
0.15° annual change
Runways:1
Longest:10072 × 148 ft (3070 × 45 m), paved

Time
Time Zone:UTC+2 (DST+3)
Local Time:

Weather
METAR:EETN 161350Z 22012KT 9999 OVC010 08/07 Q1037 R08/19//95 NOSIG
TAF:EETN 161130Z 1612/1712 23014KT 9999 OVC012
TEMPO 1612/1616 4000 RADZ BR BKN006 OVC015
BECMG 1617/1619 SCT012 BKN020
TEMPO 1703/1711 4000 RADZ BKN06 BKN015

Related Locations
Nearby:
Farthest:CHT: 11030 mi / 17752 km
Waitangi [Tuuta], CIT, NZ

Find:

   beyond  
but within

Other Information
Maps:
NOTAMs:
Links:
Sources:

  
  • flag of Estonia
  • flag of Tallinn
  

Sectional Chart

Flight Planning
at skyvector.com

Satellite Image

Google Maps Satellite view

 

Copyright © 2004-2018 Karl L. Swartz. All rights reserved.
The Great Circle Mapper name and logo are trademarks of the Great Circle Mapper.
All other trademarks mentioned herein belong to their respective owners.
Please see credits for attibutions and further copyright information.

  Follow gcmap on Facebook Follow gcmap on Twitter Follow gcmap on Google+ GCmap on LinkedIn

hCard Microformat

Geo Microformat